Latest Weather Observations for Collie East

IDW60801

Issued at 7:02 pm WST Wednesday 4 March 2015 (issued every 30 minutes, with the page automatically refreshed every 10 minutes)

About weather observations | Map of weather stations | Latest weather observations for WA | Other Formats
Station Details ID: 009994 Name: COLLIE EAST Lat: -33.36 Lon: 116.17 Height: 200.0 m
Data from the previous 72 hours. | See also: Recent months at Collie East
Date/Time
WST
Temp
°C
App
Temp
°C
Dew
Point
Rel
Hum
%
Delta-T
°C
Wind Press
QNH
hPa
Press
MSL
hPa
Rain
since 9 am
mm
Dir
 
Spd
km/h
Gust
km/h
Spd
kts
Gust
kts
04/07:00pm 26.5 24.6 8.9 33 9.7 ESE 9 17 5 9 - - 0.0
04/06:30pm 27.5 24.8 8.9 31 10.3 ESE 13 20 7 11 - - 0.0
04/06:00pm 28.3 25.8 9.6 31 10.5 ESE 13 20 7 11 - - 0.0
04/05:30pm 28.8 26.2 9.5 30 10.9 ESE 13 22 7 12 - - 0.0
04/05:00pm 29.3 26.7 9.4 29 11.2 E 13 24 7 13 - - 0.0
04/04:30pm 29.6 27.1 9.7 29 11.3 ESE 13 28 7 15 - - 0.0
04/04:00pm 29.4 26.2 10.0 30 11.0 SSE 17 32 9 17 - - 0.0
04/03:30pm 29.7 28.1 10.3 30 11.1 E 9 19 5 10 - - 0.0
04/03:00pm 29.5 27.8 11.1 32 10.7 ESE 11 20 6 11 - - 0.0
04/02:30pm 28.8 26.5 10.5 32 10.5 SE 13 22 7 12 - - 0.0
04/02:00pm 28.9 26.6 10.6 32 10.5 E 13 24 7 13 - - 0.0
04/01:30pm 28.4 26.4 11.5 35 9.8 E 13 20 7 11 - - 0.0
04/01:00pm 27.6 25.8 12.0 38 9.1 ESE 13 24 7 13 - - 0.0
04/12:30pm 27.1 25.4 12.3 39 8.6 ESE 13 19 7 10 - - 0.0
04/12:00pm 26.2 24.8 12.3 42 8.1 ESE 11 19 6 10 - - 0.0
04/11:30am 25.5 23.9 12.7 45 7.5 E 13 26 7 14 - - 0.0
04/11:00am 23.7 21.9 12.0 48 6.7 E 13 20 7 11 - - 0.0
04/10:30am 23.0 21.3 12.3 51 6.1 ESE 13 22 7 12 - - 0.0
04/10:00am 22.0 20.3 12.5 54 5.4 E 13 22 7 12 - - 0.0
04/09:30am 20.8 19.1 12.5 59 4.7 E 13 24 7 13 - - 0.0
04/09:00am 19.7 17.9 12.2 62 4.2 E 13 24 7 13 - - 0.0
04/08:30am 18.3 17.2 12.1 67 3.5 ESE 9 15 5 8 - - 0.0
04/08:00am 16.9 16.1 11.6 71 2.9 ESE 7 13 4 7 - - 0.0
04/07:30am 14.5 13.5 11.1 80 1.8 SSE 7 13 4 7 - - 0.0
04/07:00am 12.6 11.9 10.1 85 1.3 SSE 4 7 2 4 - - 0.0
04/06:30am 11.6 11.1 9.5 87 1.1 S 2 6 1 3 - - 0.0
04/06:00am 12.2 11.1 9.8 85 1.2 S 6 9 3 5 - - 0.0
04/05:30am 12.5 11.4 10.0 85 1.3 ESE 6 7 3 4 - - 0.0
04/05:00am 13.0 12.0 10.4 84 1.4 ESE 6 9 3 5 - - 0.0
04/04:30am 13.5 12.4 10.5 82 1.6 ESE 7 15 4 8 - - 0.0
04/04:00am 13.4 12.4 10.4 82 1.6 SE 6 11 3 6 - - 0.0
04/03:30am 13.7 12.7 10.3 80 1.8 SE 6 9 3 5 - - 0.0
04/03:00am 13.8 12.8 10.2 79 1.9 SSE 6 9 3 5 - - 0.0
04/02:30am 14.4 13.4 10.4 77 2.1 SE 6 13 3 7 - - 0.0
04/02:00am 14.9 13.8 10.5 75 2.3 ESE 7 9 4 5 - - 0.0
04/01:30am 15.5 14.0 10.7 73 2.6 ESE 9 13 5 7 - - 0.0
04/01:00am 16.0 14.5 10.7 71 2.8 SE 9 15 5 8 - - 0.0
04/12:30am 16.5 15.1 10.8 69 3.1 ESE 9 17 5 9 - - 0.0
04/12:00am 17.2 15.8 11.0 67 3.4 SE 9 19 5 10 - - 0.0
 
Date/Time
WST
Temp
°C
App
Temp
°C
Dew
Point
Rel
Hum
%
Delta-T
°C
Wind Press
QNH
hPa
Press
MSL
hPa
Rain
since 9 am
mm
Dir
 
Spd
km/h
Gust
km/h
Spd
kts
Gust
kts
03/11:30pm 17.7 16.3 10.8 64 3.7 SE 9 17 5 9 - - 0.0
03/11:00pm 18.3 17.3 10.9 62 4.0 SE 7 9 4 5 - - 0.0
03/10:30pm 19.2 17.8 11.0 59 4.5 ESE 9 22 5 12 - - 0.0
03/10:00pm 19.9 18.9 10.9 56 5.0 ESE 7 13 4 7 - - 0.0
03/09:30pm 20.8 19.0 10.9 53 5.5 ESE 11 22 6 12 - - 0.0
03/09:00pm 21.6 19.7 10.4 49 6.2 ESE 11 24 6 13 - - 0.0
03/08:30pm 22.1 20.1 10.3 47 6.5 ESE 11 20 6 11 - - 0.0
03/08:00pm 22.3 21.0 10.1 46 6.7 SE 7 9 4 5 - - 0.0
03/07:30pm 23.1 21.9 10.2 44 7.1 SE 7 13 4 7 - - 0.0
03/07:00pm 23.9 22.3 10.2 42 7.6 SE 9 15 5 8 - - 0.0
03/06:30pm 25.0 23.0 10.1 39 8.3 SE 11 22 6 12 - - 0.0
03/06:00pm 25.8 23.8 10.0 37 8.8 SE 11 20 6 11 - - 0.0
03/05:30pm 26.3 24.3 10.0 36 9.1 SE 11 22 6 12 - - 0.0
03/05:00pm 25.8 24.0 10.8 39 8.5 ESE 11 17 6 9 - - 0.0
03/04:30pm 26.3 24.9 10.9 38 8.8 SE 9 17 5 9 - - 0.0
03/04:00pm 26.6 24.5 9.9 35 9.4 SE 11 22 6 12 - - 0.0
03/03:30pm 27.2 25.6 11.7 38 9.0 SE 11 22 6 12 - - 0.0
03/03:00pm 27.1 24.9 10.7 35 9.3 ESE 13 24 7 13 - - 0.0
03/02:30pm 27.4 25.6 12.2 39 8.9 ESE 13 22 7 12 - - 0.0
03/02:00pm 26.8 25.7 13.2 43 8.0 SE 11 20 6 11 - - 0.0
03/01:30pm 26.5 25.7 12.9 43 8.0 SE 9 22 5 12 - - 0.0
03/01:00pm 25.3 23.6 12.5 45 7.4 SE 13 22 7 12 - - 0.0
03/12:30pm 24.2 22.7 13.1 50 6.5 E 13 22 7 12 - - 0.0
03/12:00pm 23.8 22.2 12.8 50 6.4 E 13 26 7 14 - - 0.0
03/11:30am 22.3 20.6 12.5 53 5.6 ESE 13 28 7 15 - - 0.0
03/11:00am 21.1 19.0 12.5 58 4.9 ESE 15 30 8 16 - - 0.0
03/10:30am 20.7 18.6 12.4 59 4.7 ESE 15 26 8 14 - - 0.0
03/10:00am 19.0 16.5 12.3 65 3.8 E 17 32 9 17 - - 0.0
03/09:30am 18.2 15.9 11.7 66 3.6 E 15 30 8 16 - - 0.0
03/09:00am 17.7 14.6 11.5 67 3.4 ENE 19 24 10 13 - - 0.0
03/08:30am 17.7 15.6 11.0 65 3.7 ESE 13 24 7 13 - - 0.0
03/08:00am 17.5 15.4 11.1 66 3.5 ESE 13 26 7 14 - - 0.0
03/07:30am 15.9 14.3 10.2 69 3.0 SE 9 17 5 9 - - 0.0
03/07:00am 15.7 14.1 10.2 70 2.9 ESE 9 15 5 8 - - 0.0
03/06:30am 15.4 13.8 10.2 71 2.8 SE 9 17 5 9 - - 0.0
03/06:00am 15.1 13.8 10.1 72 2.6 ESE 7 13 4 7 - - 0.0
03/05:30am 14.9 13.5 9.7 71 2.7 SE 7 15 4 8 - - 0.0
03/05:00am 14.8 13.0 9.4 70 2.8 SE 9 13 5 7 - - 0.0
03/04:30am 14.4 12.8 8.6 68 3.0 SSE 7 13 4 7 - - 0.0
03/04:00am 14.2 12.6 8.2 67 3.0 SSE 6 9 3 5 - - 0.0
03/03:30am 14.1 12.5 8.1 67 3.0 SSE 6 11 3 6 - - 0.0
03/03:00am 14.1 12.3 8.1 67 3.0 SSE 7 15 4 8 - - 0.0
03/02:30am 14.4 12.3 8.1 66 3.2 SE 9 17 5 9 - - 0.0
03/02:00am 14.3 12.5 8.0 66 3.2 SE 7 13 4 7 - - 0.0
03/01:30am 14.1 12.5 8.1 67 3.0 SE 6 11 3 6 - - 0.0
03/01:00am 14.2 12.1 8.2 67 3.0 SE 9 15 5 8 - - 0.0
03/12:30am 14.7 12.6 8.2 65 3.3 SE 9 17 5 9 - - 0.0
03/12:00am 14.9 12.9 8.6 66 3.2 ESE 9 17 5 9 - - 0.0
 
Date/Time
WST
Temp
°C
App
Temp
°C
Dew
Point
Rel
Hum
%
Delta-T
°C
Wind Press
QNH
hPa
Press
MSL
hPa
Rain
since 9 am
mm
Dir
 
Spd
km/h
Gust
km/h
Spd
kts
Gust
kts
02/11:30pm 15.2 12.9 9.1 67 3.2 ESE 11 17 6 9 - - 0.0
02/11:00pm 15.7 13.9 9.6 67 3.2 SE 9 15 5 8 - - 0.0
02/10:30pm 16.1 14.4 9.8 66 3.3 SE 9 15 5 8 - - 0.0
02/10:00pm 16.6 14.5 9.8 64 3.6 SE 11 20 6 11 - - 0.0
02/09:30pm 17.0 14.9 9.9 63 3.8 SE 11 20 6 11 - - 0.0
02/09:00pm 17.6 15.2 10.0 61 4.1 ESE 13 26 7 14 - - 0.0
02/08:30pm 18.1 15.4 10.2 60 4.2 SE 15 32 8 17 - - 0.0
02/08:00pm 18.6 16.0 10.7 60 4.3 SE 15 30 8 16 - - 0.0
02/07:30pm 19.1 16.9 10.9 59 4.5 ESE 13 30 7 16 - - 0.0
02/07:00pm 19.4 16.9 11.2 59 4.5 SE 15 30 8 16 - - 0.0
02/06:30pm 20.0 17.2 11.2 57 4.9 SE 17 37 9 20 - - 0.0
02/06:00pm 21.1 18.3 11.4 54 5.4 SE 17 32 9 17 - - 0.0
02/05:30pm 21.2 18.4 11.2 53 5.6 SE 17 26 9 14 - - 0.0
02/05:00pm 21.7 18.8 11.1 51 5.9 ESE 17 33 9 18 - - 0.0
02/04:30pm 23.4 20.5 11.1 46 6.9 ESE 17 32 9 17 - - 0.0
02/04:00pm 24.4 21.7 11.7 45 7.3 ESE 17 28 9 15 - - 0.0
02/03:30pm 24.3 21.8 10.9 43 7.5 ESE 15 26 8 14 - - 0.0
02/03:00pm 25.5 23.0 10.9 40 8.3 ESE 15 22 8 12 - - 0.0
02/02:30pm 23.5 20.2 10.9 45 7.1 SE 19 37 10 20 - - 0.0
02/02:00pm 24.2 21.0 9.8 40 8.0 SSE 17 33 9 18 - - 0.0
02/01:30pm 24.9 22.0 9.6 38 8.4 ESE 15 28 8 15 - - 0.0
02/01:00pm 24.3 20.9 9.1 38 8.3 SSE 17 30 9 16 - - 0.0
02/12:30pm 24.2 20.9 9.4 39 8.1 E 17 30 9 16 - - 0.0
02/12:00pm 24.5 21.7 10.0 40 8.0 ESE 15 39 8 21 - - 0.0
02/11:30am 23.2 20.2 9.2 41 7.6 ESE 15 32 8 17 - - 0.0
02/11:00am 22.5 19.3 8.6 41 7.4 SE 15 28 8 15 - - 0.0
02/10:30am 21.9 18.9 9.4 45 6.8 ESE 15 26 8 14 - - 0.0
02/10:00am 20.2 16.6 8.5 47 6.2 SE 17 32 9 17 - - 0.0
02/09:30am 19.8 16.8 9.1 50 5.7 ESE 15 26 8 14 - - 0.0
02/09:00am 18.7 15.6 8.7 52 5.2 SE 15 35 8 19 - - 0.0
02/08:30am 17.6 15.0 9.2 58 4.4 ESE 13 24 7 13 - - 0.0
02/08:00am 16.5 13.7 8.7 60 4.0 SE 13 28 7 15 - - 0.0
02/07:30am 16.1 13.4 8.8 62 3.8 SE 13 24 7 13 - - 0.0
02/07:00am 15.5 13.3 9.2 66 3.3 SE 11 24 6 13 - - 0.0
02/06:30am 14.5 13.0 9.1 70 2.8 SE 7 17 4 9 - - 0.0
02/06:00am 14.0 12.4 8.6 70 2.7 SE 7 15 4 8 - - 0.0
02/05:30am 14.2 12.6 8.8 70 2.8 SE 7 11 4 6 - - 0.0
02/05:00am 14.5 12.9 8.7 68 3.0 SE 7 13 4 7 - - 0.0
02/04:30am 14.9 12.9 8.8 67 3.1 SE 9 15 5 8 - - 0.0
02/04:00am 15.0 13.0 8.7 66 3.2 SE 9 15 5 8 - - 0.0
02/03:30am 15.1 13.1 8.8 66 3.2 SE 9 19 5 10 - - 0.0
02/03:00am 15.2 12.8 8.7 65 3.3 SE 11 19 6 10 - - 0.0
02/02:30am 15.5 13.1 8.7 64 3.5 SE 11 26 6 14 - - 0.0
02/02:00am 15.8 13.4 8.8 63 3.6 SE 11 22 6 12 - - 0.0
02/01:30am 16.1 13.7 8.8 62 3.8 SE 11 26 6 14 - - 0.0
02/01:00am 16.5 13.4 8.7 60 4.0 SE 15 32 8 17 - - 0.0
02/12:30am 16.9 14.2 8.8 59 4.2 SE 13 28 7 15 - - 0.0
02/12:00am 16.9 14.6 9.1 60 4.1 SE 11 24 6 13 - - 0.0
 
Date/Time
WST
Temp
°C
App
Temp
°C
Dew
Point
Rel
Hum
%
Delta-T
°C
Wind Press
QNH
hPa
Press
MSL
hPa
Rain
since 9 am
mm
Dir
 
Spd
km/h
Gust
km/h
Spd
kts
Gust
kts
01/11:30pm 16.9 14.7 9.3 61 4.0 SE 11 26 6 14 - - 0.0
01/11:00pm 16.9 13.5 9.3 61 4.0 SE 17 37 9 20 - - 0.0
01/10:30pm 17.0 14.0 9.4 61 4.0 SE 15 30 8 16 - - 0.0
01/10:00pm 17.0 14.1 9.7 62 3.9 SE 15 28 8 15 - - 0.0
01/09:30pm 17.2 13.9 9.6 61 4.0 SE 17 30 9 16 - - 0.0
01/09:00pm 17.4 14.2 10.1 62 3.9 SE 17 32 9 17 - - 0.0
01/08:30pm 17.7 15.5 10.8 64 3.7 SE 13 28 7 15 - - 0.0
01/08:00pm 18.2 15.1 11.5 65 3.7 SE 19 35 10 19 - - 0.0
01/07:30pm 19.0 16.5 12.3 65 3.8 SE 17 30 9 16 - - 0.0

Other Formats:

Comma delimited format used in spreadsheet applications
http://www.bom.gov.au/fwo/IDW60801/IDW60801.95621.axf

JavaScript Object Notation format (JSON) in row-major order
http://www.bom.gov.au/fwo/IDW60801/IDW60801.95621.json